Time;durP1;ratioP1;P1;durP2;ratioP2;P2;SDS_P1;SDS_P2;PMS_P1;PMS_P2;Temp;Humidity;BMP_temperature;BMP_pressure;BME280_temperature;BME280_humidity;BME280_pressure;Samples;Min_cycle;Max_cycle;Signal;HPM_P1;HPM_P2
2023/05/23 00:00:54;;;;;;;10.80;5.70;;;;;;;15.31;100.00;99784.69;5068377;28;20079;-18
2023/05/23 00:03:21;;;;;;;9.77;5.70;;;;;;;15.25;100.00;99775.78;5067995;28;20114;-18
2023/05/23 00:05:47;;;;;;;8.80;5.72;;;;;;;15.31;100.00;99778.53;5068165;28;20031;-19
2023/05/23 00:08:13;;;;;;;11.15;5.82;;;;;;;15.18;100.00;99780.56;5067650;28;20016;-19
2023/05/23 00:10:38;;;;;;;7.25;4.93;;;;;;;15.11;100.00;99768.41;5067991;28;20028;-19
2023/05/23 00:13:04;;;;;;;11.02;5.57;;;;;;;15.10;100.00;99764.94;5067918;28;20028;-19
2023/05/23 00:15:30;;;;;;;9.95;5.80;;;;;;;14.92;100.00;99776.84;5067700;28;20032;-21
2023/05/23 00:17:55;;;;;;;8.35;5.53;;;;;;;14.92;100.00;99759.94;5068026;28;20028;-18
2023/05/23 00:20:21;;;;;;;7.65;5.57;;;;;;;14.96;100.00;99758.38;5067541;28;20427;-18
2023/05/23 00:22:47;;;;;;;10.50;5.68;;;;;;;15.00;100.00;99754.09;5067814;28;20024;-20
2023/05/23 00:25:12;;;;;;;10.10;5.18;;;;;;;14.84;100.00;99753.16;5067553;28;20090;-18
2023/05/23 00:27:38;;;;;;;8.75;5.57;;;;;;;14.73;100.00;99754.94;5067633;28;20052;-19
2023/05/23 00:30:04;;;;;;;9.18;5.60;;;;;;;14.71;100.00;99740.97;5067592;28;20033;-19
2023/05/23 00:32:29;;;;;;;7.25;4.88;;;;;;;14.50;100.00;99739.09;5067879;28;20033;-19
2023/05/23 00:34:56;;;;;;;9.90;5.90;;;;;;;14.58;100.00;99755.56;5067731;28;20020;-19
2023/05/23 00:37:21;;;;;;;8.88;5.43;;;;;;;14.39;100.00;99744.34;5067227;28;20033;-18
2023/05/23 00:39:47;;;;;;;7.53;5.50;;;;;;;14.52;100.00;99755.75;5067536;28;20029;-18
2023/05/23 00:42:13;;;;;;;8.23;5.57;;;;;;;14.46;100.00;99755.72;5067244;28;20032;-19
2023/05/23 00:44:38;;;;;;;8.23;5.47;;;;;;;14.56;100.00;99754.22;5049650;28;20028;-18
2023/05/23 00:47:06;;;;;;;8.27;5.60;;;;;;;14.60;100.00;99758.00;5067140;28;20452;-18
2023/05/23 00:49:32;;;;;;;8.05;5.50;;;;;;;14.54;100.00;99748.25;5067257;28;20056;-18
2023/05/23 00:51:59;;;;;;;9.65;6.22;;;;;;;14.61;100.00;99751.59;5067317;28;20068;-18
2023/05/23 00:54:30;;;;;;;10.52;5.75;;;;;;;14.59;100.00;99751.84;5067124;28;20127;-19
2023/05/23 00:56:55;;;;;;;9.02;6.05;;;;;;;14.52;100.00;99759.25;5067526;28;20036;-18
2023/05/23 00:59:23;;;;;;;8.15;5.65;;;;;;;14.60;100.00;99763.38;5067097;28;20107;-18
2023/05/23 01:01:49;;;;;;;8.65;6.07;;;;;;;14.50;100.00;99756.00;5066914;28;20040;-18
2023/05/23 01:04:16;;;;;;;9.82;4.82;;;;;;;14.39;100.00;99741.66;5066909;28;20055;-19
2023/05/23 01:06:45;;;;;;;9.57;5.60;;;;;;;14.46;100.00;99750.34;5066975;28;20029;-18
2023/05/23 01:09:15;;;;;;;8.77;6.00;;;;;;;14.28;100.00;99753.34;5066799;28;20020;-18
2023/05/23 01:11:56;;;;;;;8.52;6.05;;;;;;;14.27;100.00;99763.25;5066669;28;20028;-18
2023/05/23 01:14:34;;;;;;;10.50;6.07;;;;;;;14.21;100.00;99731.28;5066517;28;20051;-19
2023/05/23 01:17:14;;;;;;;10.27;6.00;;;;;;;14.32;100.00;99743.72;5066844;28;20039;-21
2023/05/23 01:20:01;;;;;;;9.48;5.95;;;;;;;14.32;100.00;99745.59;5066711;28;20082;-19
2023/05/23 01:23:01;;;;;;;11.60;7.20;;;;;;;14.17;100.00;99751.59;5066710;28;20715;-20
2023/05/23 01:25:45;;;;;;;11.75;7.95;;;;;;;13.95;100.00;99752.41;5066636;28;20393;-18
2023/05/23 01:28:16;;;;;;;18.70;10.20;;;;;;;14.05;100.00;99736.44;5066563;28;20510;-19
2023/05/23 01:30:44;;;;;;;21.10;13.48;;;;;;;14.26;100.00;99752.78;5065977;28;20039;-26
2023/05/23 01:33:12;;;;;;;;;;;;;;;14.32;100.00;99750.97;5066959;28;20036;-18
2023/05/23 01:35:39;;;;;;;17.52;10.13;;;;;;;14.12;100.00;99740.81;5066293;28;19912;-22
2023/05/23 01:38:04;;;;;;;10.70;7.10;;;;;;;14.18;100.00;99745.16;5066177;28;20043;-18
2023/05/23 01:40:30;;;;;;;9.02;6.10;;;;;;;14.09;100.00;99735.97;5066615;28;20024;-21
2023/05/23 01:42:59;;;;;;;8.38;5.63;;;;;;;13.85;100.00;99720.94;5065948;28;20519;-18
2023/05/23 01:45:26;;;;;;;10.43;6.03;;;;;;;14.04;100.00;99729.47;5066312;28;20083;-18
2023/05/23 01:47:53;;;;;;;12.45;6.57;;;;;;;14.03;100.00;99735.88;5065880;28;20035;-18
2023/05/23 01:50:19;;;;;;;12.07;6.20;;;;;;;14.03;100.00;99733.19;5066040;28;20025;-19
2023/05/23 01:52:46;;;;;;;10.13;5.90;;;;;;;14.00;100.00;99739.06;5065938;28;20044;-20
2023/05/23 01:55:15;;;;;;;9.05;6.10;;;;;;;13.88;100.00;99730.34;5066000;28;20024;-18
2023/05/23 01:57:41;;;;;;;8.68;6.13;;;;;;;13.52;100.00;99716.47;5065527;28;20029;-18
2023/05/23 02:00:09;;;;;;;9.23;5.65;;;;;;;13.83;100.00;99732.94;5047861;28;20025;-19
2023/05/23 02:02:35;;;;;;;9.40;6.32;;;;;;;13.74;100.00;99735.25;5065855;28;20032;-18
2023/05/23 02:05:01;;;;;;;10.23;6.38;;;;;;;13.84;100.00;99735.38;5065887;28;20093;-18
2023/05/23 02:07:26;;;;;;;12.05;6.15;;;;;;;13.78;100.00;99720.28;5065674;28;20032;-18
2023/05/23 02:09:51;;;;;;;11.15;7.28;;;;;;;13.71;100.00;99718.84;5065834;28;20029;-18
2023/05/23 02:12:17;;;;;;;12.70;6.80;;;;;;;13.46;100.00;99738.88;5065785;28;20052;-18
2023/05/23 02:14:42;;;;;;;10.43;6.32;;;;;;;13.47;100.00;99727.13;5065761;28;20077;-18
2023/05/23 02:17:11;;;;;;;11.18;6.32;;;;;;;13.40;100.00;99724.63;5065625;28;20419;-19
2023/05/23 02:19:37;;;;;;;10.82;6.75;;;;;;;13.32;100.00;99725.03;5065593;28;20098;-18
2023/05/23 02:22:02;;;;;;;10.90;6.32;;;;;;;13.33;100.00;99732.00;5065981;28;20029;-18
2023/05/23 02:24:28;;;;;;;10.02;6.10;;;;;;;13.23;100.00;99721.91;5065747;28;20032;-22
2023/05/23 02:26:54;;;;;;;13.27;6.93;;;;;;;13.30;100.00;99743.22;5065459;28;20566;-20
2023/05/23 02:29:20;;;;;;;10.55;6.07;;;;;;;13.15;100.00;99754.44;5065449;28;20051;-19
2023/05/23 02:31:45;;;;;;;10.00;6.07;;;;;;;13.17;100.00;99757.69;5065450;28;20028;-19
2023/05/23 02:34:11;;;;;;;10.27;6.00;;;;;;;12.95;100.00;99751.44;5065320;28;20021;-19
2023/05/23 02:36:36;;;;;;;8.77;6.20;;;;;;;13.09;100.00;99750.06;5047100;28;20032;-19
2023/05/23 02:39:03;;;;;;;11.38;6.20;;;;;;;13.03;100.00;99751.84;5065616;28;20521;-18
2023/05/23 02:41:29;;;;;;;10.73;7.07;;;;;;;12.92;100.00;99762.63;5064952;28;20491;-19
2023/05/23 02:43:54;;;;;;;12.55;6.75;;;;;;;12.77;100.00;99742.59;5065489;28;20031;-18
2023/05/23 02:46:20;;;;;;;12.10;7.65;;;;;;;12.78;100.00;99752.22;5065135;28;20047;-18
2023/05/23 02:48:45;;;;;;;14.00;7.00;;;;;;;12.71;100.00;99742.72;5065249;28;20031;-18
2023/05/23 02:51:12;;;;;;;11.48;6.90;;;;;;;12.98;100.00;99753.66;5065284;28;20110;-18
2023/05/23 02:53:38;;;;;;;12.68;7.18;;;;;;;13.12;100.00;99743.41;5065041;28;20182;-18
2023/05/23 02:56:03;;;;;;;12.23;6.57;;;;;;;13.35;100.00;99758.53;5065262;28;20124;-18
2023/05/23 02:58:29;;;;;;;11.82;6.57;;;;;;;13.40;100.00;99762.13;5065245;28;20024;-18
2023/05/23 03:00:54;;;;;;;19.17;12.27;;;;;;;13.17;100.00;99760.38;5065095;28;20029;-20
2023/05/23 03:03:20;;;;;;;26.33;16.17;;;;;;;13.00;100.00;99754.22;5064973;28;20419;-18
2023/05/23 03:05:46;;;;;;;24.58;12.00;;;;;;;13.23;100.00;99762.06;5065102;28;20162;-18
2023/05/23 03:08:11;;;;;;;18.98;11.35;;;;;;;13.01;100.00;99753.16;5065179;28;20040;-18
2023/05/23 03:10:37;;;;;;;25.55;14.85;;;;;;;12.71;100.00;99748.06;5065176;28;20396;-18
2023/05/23 03:13:02;;;;;;;19.88;10.65;;;;;;;12.76;100.00;99748.97;5066162;28;20574;-18
2023/05/23 03:15:27;;;;;;;16.27;8.88;;;;;;;12.99;100.00;99755.25;5065921;28;20048;-18
2023/05/23 03:17:53;;;;;;;13.55;8.52;;;;;;;12.95;100.00;99748.75;5065835;28;20214;-19
2023/05/23 03:20:18;;;;;;;11.57;7.10;;;;;;;13.13;100.00;99753.88;5065892;28;20032;-18
2023/05/23 03:22:44;;;;;;;15.65;7.70;;;;;;;13.04;100.00;99758.84;5065908;28;20032;-18
2023/05/23 03:25:10;;;;;;;14.60;7.88;;;;;;;13.51;100.00;99765.75;5065923;28;20055;-26
2023/05/23 03:27:35;;;;;;;10.73;6.68;;;;;;;13.23;100.00;99769.31;5066107;28;20024;-18
2023/05/23 03:30:02;;;;;;;11.43;6.82;;;;;;;13.26;100.00;99742.84;5065995;28;20477;-18
2023/05/23 03:32:28;;;;;;;10.57;6.97;;;;;;;13.27;100.00;99759.72;5065763;28;20123;-19
2023/05/23 03:34:53;;;;;;;9.15;6.38;;;;;;;13.39;100.00;99765.03;5065941;28;20146;-17
2023/05/23 03:37:19;;;;;;;11.80;6.95;;;;;;;13.40;100.00;99767.47;5065505;28;20069;-19
2023/05/23 03:39:44;;;;;;;18.50;7.82;;;;;;;13.31;100.00;99768.94;5065820;28;20073;-18
2023/05/23 03:42:09;;;;;;;9.30;6.45;;;;;;;13.58;100.00;99763.69;5065701;28;20507;-18
2023/05/23 03:44:35;;;;;;;10.55;6.97;;;;;;;13.85;100.00;99763.81;5065952;28;20035;-20
2023/05/23 03:47:00;;;;;;;9.80;6.68;;;;;;;13.80;100.00;99770.97;5065644;28;20032;-18
2023/05/23 03:49:26;;;;;;;18.00;10.07;;;;;;;13.80;100.00;99766.41;5065650;28;20083;-18
2023/05/23 03:51:51;;;;;;;24.13;13.18;;;;;;;13.81;100.00;99762.69;5065670;28;20021;-18
2023/05/23 03:54:17;;;;;;;25.63;13.15;;;;;;;13.99;100.00;99766.94;5066912;28;20044;-18
2023/05/23 03:56:42;;;;;;;15.73;8.38;;;;;;;13.96;100.00;99769.31;5069035;28;20177;-18
2023/05/23 03:59:08;;;;;;;12.35;7.75;;;;;;;14.07;100.00;99763.81;5069199;28;20074;-24
2023/05/23 04:01:33;;;;;;;11.70;7.22;;;;;;;14.16;100.00;99766.06;5069161;28;20027;-18
2023/05/23 04:03:59;;;;;;;12.35;7.10;;;;;;;13.97;100.00;99744.13;5069237;28;20037;-18
2023/05/23 04:06:25;;;;;;;10.90;7.38;;;;;;;14.09;100.00;99762.78;5068892;28;20847;-17
2023/05/23 04:08:50;;;;;;;14.18;9.30;;;;;;;14.19;100.00;99769.06;5069007;28;20407;-18
2023/05/23 04:11:16;;;;;;;12.35;8.15;;;;;;;14.31;100.00;99762.78;5068953;28;20556;-18
2023/05/23 04:13:44;;;;;;;14.20;7.70;;;;;;;14.43;100.00;99774.97;5069061;28;20025;-19
2023/05/23 04:16:09;;;;;;;13.18;7.18;;;;;;;14.38;100.00;99771.41;5068817;28;20494;-18
2023/05/23 04:18:37;;;;;;;11.10;7.07;;;;;;;14.66;100.00;99773.09;5068973;28;20531;-18
2023/05/23 04:21:03;;;;;;;11.60;6.80;;;;;;;14.67;100.00;99772.06;5069060;28;20414;-18
2023/05/23 04:23:29;;;;;;;13.27;5.95;;;;;;;14.72;100.00;99790.88;5068639;28;20487;-18
2023/05/23 04:25:56;;;;;;;8.60;5.85;;;;;;;14.71;100.00;99781.22;5069014;28;20033;-18
2023/05/23 04:28:22;;;;;;;10.18;6.22;;;;;;;14.62;100.00;99788.09;5068537;28;20040;-19
2023/05/23 04:30:52;;;;;;;10.63;7.35;;;;;;;14.73;100.00;99781.78;5068918;28;20029;-19
2023/05/23 04:33:17;;;;;;;15.63;8.55;;;;;;;14.76;100.00;99783.94;5068815;28;20055;-18
2023/05/23 04:35:43;;;;;;;14.07;8.18;;;;;;;14.85;100.00;99787.81;5068736;28;20475;-18
2023/05/23 04:38:09;;;;;;;11.88;7.47;;;;;;;14.85;100.00;99795.88;5068276;28;20040;-20
2023/05/23 04:40:34;;;;;;;13.95;8.43;;;;;;;15.02;100.00;99786.88;5068683;28;20029;-18
2023/05/23 04:43:00;;;;;;;12.18;8.13;;;;;;;14.96;100.00;99785.22;5068370;28;20024;-18
2023/05/23 04:45:25;;;;;;;14.35;7.90;;;;;;;15.09;100.00;99798.22;5068392;28;20093;-18
2023/05/23 04:47:53;;;;;;;10.40;6.53;;;;;;;15.09;100.00;99787.47;5068349;28;20097;-17
2023/05/23 04:50:20;;;;;;;10.55;6.53;;;;;;;14.97;100.00;99789.50;5068562;28;20527;-18
2023/05/23 04:52:46;;;;;;;13.00;8.13;;;;;;;15.13;100.00;99793.16;5068182;28;20056;-18
2023/05/23 04:55:11;;;;;;;8.80;5.80;;;;;;;14.99;100.00;99779.31;5068380;28;20078;-18
2023/05/23 04:57:37;;;;;;;9.35;5.45;;;;;;;15.02;100.00;99785.00;5067987;28;20703;-19
2023/05/23 05:00:09;;;;;;;9.93;6.32;;;;;;;15.17;100.00;99797.75;5068199;28;20039;-18
2023/05/23 05:02:35;;;;;;;13.38;7.88;;;;;;;15.09;100.00;99798.22;5068283;28;20099;-18
2023/05/23 05:05:03;;;;;;;16.30;8.27;;;;;;;15.11;100.00;99792.59;5067396;28;20032;-20
2023/05/23 05:07:29;;;;;;;11.40;6.88;;;;;;;15.01;100.00;99806.72;5067560;28;20027;-18
2023/05/23 05:09:54;;;;;;;8.68;5.30;;;;;;;15.10;100.00;99810.59;5067653;28;20047;-18
2023/05/23 05:12:20;;;;;;;8.57;5.40;;;;;;;15.13;100.00;99814.63;5067936;28;20017;-18
2023/05/23 05:14:45;;;;;;;9.32;6.00;;;;;;;15.25;100.00;99801.84;5067664;28;20032;-18
2023/05/23 05:17:11;;;;;;;9.38;6.20;;;;;;;15.39;100.00;99818.34;5067802;28;20025;-18
2023/05/23 05:19:37;;;;;;;11.13;6.15;;;;;;;15.54;100.00;99805.00;5068016;28;20576;-19
2023/05/23 05:22:02;;;;;;;21.15;11.40;;;;;;;15.56;100.00;99816.31;5067517;28;20111;-18
2023/05/23 05:24:28;;;;;;;26.40;11.07;;;;;;;15.58;100.00;99810.69;5067832;28;20038;-18
2023/05/23 05:26:54;;;;;;;16.98;9.48;;;;;;;15.71;100.00;99825.56;5067482;28;20033;-18
2023/05/23 05:29:20;;;;;;;16.52;8.45;;;;;;;15.72;100.00;99825.34;5067752;28;20427;-18
2023/05/23 05:31:45;;;;;;;12.05;7.05;;;;;;;15.67;100.00;99834.16;5067443;28;20025;-18
2023/05/23 05:34:12;;;;;;;13.13;7.35;;;;;;;15.52;100.00;99828.66;5067594;28;20021;-19
2023/05/23 05:36:44;;;;;;;9.10;5.40;;;;;;;15.50;100.00;99825.41;5067354;28;20032;-17
2023/05/23 05:39:10;;;;;;;7.70;4.75;;;;;;;15.44;100.00;99829.94;5067203;28;20119;-18
2023/05/23 05:41:35;;;;;;;11.23;5.75;;;;;;;15.51;100.00;99828.91;5067518;28;20143;-18
2023/05/23 05:44:01;;;;;;;8.25;4.57;;;;;;;15.53;100.00;99834.81;5066604;28;20032;-18
2023/05/23 05:46:26;;;;;;;7.93;5.05;;;;;;;15.56;100.00;99839.69;5073073;28;20469;-18
2023/05/23 05:48:51;;;;;;;9.40;5.45;;;;;;;15.78;100.00;99839.63;5086167;28;20039;-19
2023/05/23 05:51:17;;;;;;;9.10;5.50;;;;;;;15.77;100.00;99829.94;5086526;28;20024;-20
2023/05/23 05:53:42;;;;;;;9.65;5.82;;;;;;;15.99;100.00;99832.50;5085953;28;20040;-18
2023/05/23 05:56:08;;;;;;;12.63;7.00;;;;;;;16.22;100.00;99836.63;5086292;28;20024;-18
2023/05/23 05:58:33;;;;;;;12.52;7.18;;;;;;;16.30;100.00;99833.44;5086246;28;20449;-18
2023/05/23 06:00:59;;;;;;;14.88;7.60;;;;;;;16.52;100.00;99829.78;5086219;28;20051;-20
2023/05/23 06:03:26;;;;;;;11.98;7.13;;;;;;;16.66;100.00;99837.09;5085891;28;20038;-18
2023/05/23 06:05:51;;;;;;;14.77;7.30;;;;;;;16.94;100.00;99845.00;5085978;28;20524;-18
2023/05/23 06:08:16;;;;;;;10.00;6.53;;;;;;;17.02;100.00;99850.69;5086022;28;20565;-19
2023/05/23 06:10:42;;;;;;;13.73;6.03;;;;;;;16.90;100.00;99849.28;5086034;28;20051;-19
2023/05/23 06:13:07;;;;;;;9.13;5.55;;;;;;;16.92;100.00;99847.16;5086474;28;20032;-19
2023/05/23 06:15:33;;;;;;;9.15;5.28;;;;;;;17.02;100.00;99844.47;5085867;28;20760;-19
2023/05/23 06:17:58;;;;;;;8.10;5.22;;;;;;;17.02;100.00;99852.56;5085379;28;20036;-18
2023/05/23 06:20:23;;;;;;;10.90;5.78;;;;;;;17.22;100.00;99841.81;5085920;28;20053;-19
2023/05/23 06:22:49;;;;;;;8.43;5.72;;;;;;;17.25;100.00;99846.66;5085809;28;20074;-18
2023/05/23 06:25:15;;;;;;;12.73;6.10;;;;;;;17.29;100.00;99848.84;5085626;28;20039;-19
2023/05/23 06:27:40;;;;;;;10.05;6.38;;;;;;;17.39;100.00;99844.25;5085438;28;20089;-18
2023/05/23 06:30:06;;;;;;;7.45;4.88;;;;;;;17.47;100.00;99849.09;5085599;28;20166;-19
2023/05/23 06:32:31;;;;;;;8.65;5.32;;;;;;;17.71;100.00;99847.75;5085680;28;20024;-19
2023/05/23 06:39:55;;;;;;;12.40;6.60;;;;;;;17.35;100.00;99837.00;5078577;22;1341938;-18
2023/05/23 06:42:21;;;;;;;14.18;7.00;;;;;;;17.60;100.00;99839.66;5027970;28;20136;-18
2023/05/23 06:44:46;;;;;;;12.95;7.00;;;;;;;17.74;100.00;99837.22;5024383;28;20079;-19
2023/05/23 06:47:12;;;;;;;12.10;6.35;;;;;;;17.93;100.00;99842.88;5023975;28;20030;-19
2023/05/23 06:49:37;;;;;;;30.90;18.88;;;;;;;17.95;100.00;99824.53;5024035;28;20018;-18
2023/05/23 06:52:03;;;;;;;10.73;5.68;;;;;;;18.15;100.00;99842.56;5023839;28;20168;-19
2023/05/23 06:54:28;;;;;;;11.88;7.55;;;;;;;18.23;100.00;99833.91;5023990;28;20033;-19
2023/05/23 06:56:53;;;;;;;124.50;68.05;;;;;;;18.42;100.00;99836.78;5023875;28;20415;-19
2023/05/23 06:59:19;;;;;;;10.70;5.93;;;;;;;18.39;100.00;99833.84;5023845;28;20417;-18
2023/05/23 07:01:44;;;;;;;9.35;6.05;;;;;;;18.33;100.00;99824.97;5023733;28;20732;-19
2023/05/23 07:04:11;;;;;;;12.38;6.57;;;;;;;18.52;100.00;99822.44;5023272;28;20060;-19
2023/05/23 07:06:38;;;;;;;11.60;5.90;;;;;;;18.71;99.38;99822.59;5023573;28;20026;-19
2023/05/23 07:09:03;;;;;;;9.63;5.47;;;;;;;19.06;97.19;99820.78;5023435;28;20463;-19
2023/05/23 07:11:29;;;;;;;10.18;6.55;;;;;;;19.06;98.73;99804.56;5023537;28;20030;-19
2023/05/23 07:13:54;;;;;;;7.80;5.47;;;;;;;19.31;94.60;99816.28;5023456;28;20022;-19
2023/05/23 07:16:20;;;;;;;8.43;5.70;;;;;;;19.17;97.22;99814.25;5023489;28;20088;-19
2023/05/23 07:18:45;;;;;;;9.73;5.95;;;;;;;19.11;99.36;99807.25;5023404;28;20510;-19
2023/05/23 07:21:11;;;;;;;8.45;6.03;;;;;;;19.01;100.00;99799.22;5023277;28;20022;-19
2023/05/23 07:23:36;;;;;;;8.73;5.53;;;;;;;19.17;96.19;99800.72;5023345;28;20092;-17
2023/05/23 07:26:02;;;;;;;9.30;6.40;;;;;;;19.49;98.80;99818.28;5023238;28;20075;-23
2023/05/23 07:28:27;;;;;;;9.73;6.13;;;;;;;19.75;97.22;99820.81;5023201;28;20637;-20
2023/05/23 07:30:53;;;;;;;8.10;5.25;;;;;;;20.01;91.60;99819.44;5022766;28;20030;-27
2023/05/23 07:33:19;;;;;;;9.60;5.53;;;;;;;20.14;89.64;99825.25;5023315;28;20503;-18
2023/05/23 07:35:45;;;;;;;8.55;5.22;;;;;;;20.09;88.32;99831.53;5022912;28;20447;-22
2023/05/23 07:38:10;;;;;;;11.65;5.25;;;;;;;19.87;90.57;99829.34;5022787;28;20026;-18
2023/05/23 07:40:37;;;;;;;7.05;5.05;;;;;;;19.93;87.68;99822.78;5022483;28;20045;-19
2023/05/23 07:43:02;;;;;;;9.52;6.32;;;;;;;20.04;89.11;99823.47;5022709;28;20053;-19
2023/05/23 07:45:28;;;;;;;8.45;5.82;;;;;;;20.04;89.96;99829.72;5022680;28;20427;-18
2023/05/23 07:47:53;;;;;;;8.30;5.85;;;;;;;20.47;87.99;99826.19;5022655;28;20376;-20
2023/05/23 07:50:19;;;;;;;9.52;5.85;;;;;;;20.73;86.12;99829.41;5014475;28;20029;-19
2023/05/23 07:52:45;;;;;;;12.38;6.35;;;;;;;20.74;89.71;99828.34;5009473;28;20041;-19
2023/05/23 07:55:11;;;;;;;9.52;6.20;;;;;;;20.70;89.13;99818.34;5009433;28;20500;-19
2023/05/23 07:57:36;;;;;;;9.75;5.60;;;;;;;20.62;88.22;99825.25;5009432;28;20037;-19
2023/05/23 08:00:04;;;;;;;11.32;5.90;;;;;;;20.73;90.05;99824.00;5009577;28;20483;-18
2023/05/23 08:02:29;;;;;;;8.15;6.13;;;;;;;21.22;87.30;99809.16;5009225;28;20061;-18
2023/05/23 08:04:55;;;;;;;10.00;6.03;;;;;;;21.05;87.33;99817.84;5009167;28;20120;-20
2023/05/23 08:07:21;;;;;;;11.13;6.40;;;;;;;21.24;88.15;99820.53;5009230;28;20033;-19
2023/05/23 08:09:47;;;;;;;12.15;6.00;;;;;;;21.28;86.74;99821.53;5009087;28;20106;-19
2023/05/23 08:12:12;;;;;;;9.35;6.45;;;;;;;21.47;85.67;99820.72;5008172;28;20037;-18
2023/05/23 08:14:37;;;;;;;9.00;6.63;;;;;;;21.40;84.84;99814.84;5009154;28;20495;-18
2023/05/23 08:17:03;;;;;;;8.75;6.30;;;;;;;21.43;90.32;99803.44;5009119;28;20034;-19
2023/05/23 08:19:29;;;;;;;7.97;5.90;;;;;;;21.57;87.91;99808.88;5008950;28;20037;-22
2023/05/23 08:21:54;;;;;;;9.93;6.22;;;;;;;21.43;90.93;99787.16;5009096;28;20038;-18
2023/05/23 08:24:20;;;;;;;9.88;6.50;;;;;;;21.69;86.01;99806.50;5009142;28;20037;-19
2023/05/23 08:26:46;;;;;;;11.38;6.28;;;;;;;21.92;86.56;99803.91;5008882;28;20106;-19
2023/05/23 08:29:12;;;;;;;9.60;6.25;;;;;;;22.33;86.22;99798.50;5009040;28;20544;-19
2023/05/23 08:31:37;;;;;;;9.80;5.97;;;;;;;22.60;79.70;99802.28;5008563;28;21073;-19
2023/05/23 08:34:03;;;;;;;8.75;5.72;;;;;;;22.60;79.57;99810.44;5008832;28;20083;-19
2023/05/23 08:36:29;;;;;;;8.85;5.80;;;;;;;22.65;75.92;99810.31;5008679;28;20033;-18
2023/05/23 08:38:54;;;;;;;8.80;5.43;;;;;;;22.82;74.99;99801.50;5008559;28;20579;-19
2023/05/23 08:41:21;;;;;;;8.82;6.20;;;;;;;23.15;76.35;99796.69;5008661;28;20049;-18
2023/05/23 08:43:48;;;;;;;6.05;4.13;;;;;;;23.27;62.20;99799.66;5008671;28;20412;-19
2023/05/23 08:46:14;;;;;;;7.95;4.45;;;;;;;23.20;67.28;99793.03;5008796;28;20068;-18
2023/05/23 08:48:41;;;;;;;7.40;5.03;;;;;;;23.10;69.22;99799.53;5008518;28;20030;-18
2023/05/23 08:51:09;;;;;;;7.35;5.28;;;;;;;23.16;73.92;99798.28;5008578;28;20404;-19
2023/05/23 08:53:37;;;;;;;8.15;5.47;;;;;;;23.08;73.87;99799.03;5008243;28;20087;-20
2023/05/23 08:56:02;;;;;;;;;;;;;;;23.16;72.66;99783.88;5009033;28;20061;-19
2023/05/23 08:58:33;;;;;;;8.10;4.53;;;;;;;23.02;69.71;99786.66;5008014;28;19960;-19
2023/05/23 09:00:59;;;;;;;7.53;4.85;;;;;;;23.47;70.44;99783.91;5005674;28;20735;-17
2023/05/23 09:03:28;;;;;;;7.35;4.90;;;;;;;23.70;68.78;99784.69;4988347;28;20497;-19
2023/05/23 09:05:54;;;;;;;8.57;4.40;;;;;;;24.01;64.52;99781.16;4988926;28;20050;-19
2023/05/23 09:08:20;;;;;;;6.13;4.43;;;;;;;24.29;58.55;99784.41;4988742;28;20069;-18
2023/05/23 09:10:51;;;;;;;6.40;4.65;;;;;;;24.11;58.24;99780.84;4988652;28;20022;-19
2023/05/23 09:13:16;;;;;;;7.65;4.53;;;;;;;24.42;56.09;99778.03;4988599;28;20108;-18
2023/05/23 09:16:00;;;;;;;6.75;4.32;;;;;;;24.92;63.34;99779.50;4988690;28;20350;-21
2023/05/23 09:18:26;;;;;;;6.68;4.30;;;;;;;25.11;51.53;99781.09;4988449;28;20033;-19
2023/05/23 09:20:51;;;;;;;7.40;4.68;;;;;;;25.21;58.63;99743.41;4988071;28;20456;-18
2023/05/23 09:23:17;;;;;;;6.00;4.18;;;;;;;24.96;54.30;99764.09;4988375;28;20520;-19
2023/05/23 09:25:47;;;;;;;8.35;4.07;;;;;;;25.72;55.60;99767.31;4988209;28;20101;-19
2023/05/23 09:28:12;;;;;;;6.63;4.53;;;;;;;25.52;51.26;99769.66;4988437;28;20208;-19
2023/05/23 09:30:38;;;;;;;7.18;4.05;;;;;;;26.05;52.09;99772.97;4970546;28;20121;-21
2023/05/23 09:33:04;;;;;;;6.05;3.95;;;;;;;26.41;48.46;99780.63;4988177;28;20489;-18
2023/05/23 09:35:29;;;;;;;6.72;4.28;;;;;;;26.38;48.50;99773.09;4987822;28;20026;-20
2023/05/23 09:37:57;;;;;;;7.47;4.03;;;;;;;25.41;47.89;99763.72;4987938;28;20058;-18
2023/05/23 09:40:30;;;;;;;5.97;4.03;;;;;;;25.12;48.82;99769.88;4987838;28;20517;-25
2023/05/23 09:43:01;;;;;;;6.50;4.22;;;;;;;25.14;49.70;99756.69;4987970;28;20026;-19
2023/05/23 09:45:31;;;;;;;6.70;3.92;;;;;;;25.80;48.88;99756.34;4987983;28;20026;-19
2023/05/23 09:47:57;;;;;;;7.90;3.92;;;;;;;26.04;51.81;99763.19;4987525;28;20026;-19
2023/05/23 09:50:23;;;;;;;6.13;3.80;;;;;;;25.82;47.06;99747.84;4987885;28;20022;-19
2023/05/23 09:52:49;;;;;;;5.43;3.58;;;;;;;25.96;44.47;99748.44;4988114;28;20092;-18
2023/05/23 09:55:15;;;;;;;6.88;4.05;;;;;;;25.89;46.87;99750.88;4987662;28;20030;-18
2023/05/23 09:57:43;;;;;;;6.10;3.63;;;;;;;25.46;48.10;99749.13;4987600;28;20414;-19
2023/05/23 10:00:11;;;;;;;9.10;4.30;;;;;;;25.40;48.51;99751.22;4987503;28;20055;-19
2023/05/23 10:02:48;;;;;;;4.95;3.70;;;;;;;25.78;50.74;99746.88;4987545;28;20026;-19
2023/05/23 10:05:32;;;;;;;5.40;3.38;;;;;;;26.05;46.14;99742.91;4987383;28;20129;-24
2023/05/23 10:08:00;;;;;;;6.88;4.13;;;;;;;25.48;52.83;99735.94;4987518;28;20493;-18
2023/05/23 10:10:31;;;;;;;9.02;4.07;;;;;;;25.05;54.94;99761.38;4987179;28;20865;-18
2023/05/23 10:13:01;;;;;;;6.82;3.95;;;;;;;24.47;55.48;99758.78;4987139;28;20026;-20
2023/05/23 10:15:29;;;;;;;8.95;3.83;;;;;;;24.27;55.76;99743.88;4987297;28;20026;-20
2023/05/23 10:18:11;;;;;;;9.73;4.75;;;;;;;23.36;61.06;99748.00;4987359;28;20038;-19
2023/05/23 10:20:42;;;;;;;8.55;4.28;;;;;;;22.86;63.70;99750.84;4987206;28;20409;-18
2023/05/23 10:23:07;;;;;;;8.07;4.78;;;;;;;22.33;73.37;99760.47;4987222;28;20034;-18
2023/05/23 10:25:35;;;;;;;7.90;5.32;;;;;;;21.90;77.19;99752.63;4987494;28;20033;-19
2023/05/23 10:28:02;;;;;;;10.10;5.68;;;;;;;21.55;77.77;99751.41;4987162;28;20524;-19
2023/05/23 10:30:28;;;;;;;11.65;6.22;;;;;;;21.19;82.12;99763.66;4987546;28;20026;-19
2023/05/23 10:32:55;;;;;;;11.63;7.13;;;;;;;20.96;87.38;99770.78;4987102;28;20045;-20
2023/05/23 10:35:26;;;;;;;13.80;7.13;;;;;;;20.29;96.48;99779.06;4987279;28;20837;-19
2023/05/23 10:37:56;;;;;;;9.38;6.32;;;;;;;20.35;96.48;99758.94;4994000;28;20062;-19
2023/05/23 10:40:30;;;;;;;8.48;6.47;;;;;;;20.38;99.13;99761.06;5003573;28;20049;-19
2023/05/23 10:43:23;;;;;;;10.00;5.68;;;;;;;20.12;98.93;99762.47;5003775;28;20063;-19
2023/05/23 10:45:50;;;;;;;11.95;6.05;;;;;;;20.01;100.00;99765.31;5006204;28;20026;-19
2023/05/23 10:48:40;;;;;;;10.88;7.40;;;;;;;20.36;100.00;99754.31;5005909;28;20026;-20
2023/05/23 10:51:07;;;;;;;12.43;8.82;;;;;;;20.60;100.00;99765.13;5005431;28;20080;-19
2023/05/23 10:53:40;;;;;;;15.27;12.53;;;;;;;20.76;100.00;99741.31;5003823;28;20104;-19
2023/05/23 10:56:07;;;;;;;16.45;11.18;;;;;;;21.14;100.00;99760.22;5006837;28;20112;-19
2023/05/23 10:58:34;;;;;;;11.93;8.98;;;;;;;21.55;100.00;99751.41;5006435;28;20084;-18
2023/05/23 11:01:07;;;;;;;13.52;12.10;;;;;;;21.71;99.50;99757.34;5006834;28;20025;-21
2023/05/23 11:03:45;;;;;;;8.52;6.60;;;;;;;21.76;95.96;99743.69;5006333;28;20025;-19
2023/05/23 11:06:37;;;;;;;9.68;7.70;;;;;;;21.95;98.43;99732.72;5006662;28;20058;-18
2023/05/23 11:09:02;;;;;;;10.75;6.80;;;;;;;22.06;97.25;99744.97;5006517;28;20066;-19
2023/05/23 11:12:04;;;;;;;11.25;6.97;;;;;;;21.66;97.26;99731.94;5006866;28;20049;-18
2023/05/23 11:14:33;;;;;;;8.88;5.70;;;;;;;22.19;91.09;99749.59;5006284;28;20034;-19
2023/05/23 11:17:11;;;;;;;8.60;5.18;;;;;;;22.80;86.10;99752.06;5006462;28;20041;-19
2023/05/23 11:19:37;;;;;;;;;;;;;;;22.82;86.01;99758.84;5006704;28;20072;-18
2023/05/23 11:22:04;;;;;;;6.53;4.20;;;;;;;22.67;70.74;99742.88;5006440;28;20335;-18
2023/05/23 11:24:51;;;;;;;8.30;5.32;;;;;;;22.60;69.64;99756.09;5006744;28;20034;-19
2023/05/23 11:27:35;;;;;;;6.93;4.65;;;;;;;22.73;70.11;99757.94;5010076;28;20034;-19
2023/05/23 11:30:03;;;;;;;6.60;4.38;;;;;;;22.60;72.35;99743.28;5009607;28;20033;-19